Time;durP1;ratioP1;P1;durP2;ratioP2;P2;SDS_P1;SDS_P2;PMS_P1;PMS_P2;Temp;Humidity;BMP_temperature;BMP_pressure;BME280_temperature;BME280_humidity;BME280_pressure;Samples;Min_cycle;Max_cycle;Signal;HPM_P1;HPM_P2
2022/02/06 00:00:36;;;;;;;42.95;17.77;;;;;;;0.11;100.00;99639.93;1622055;88;21844;-73
2022/02/06 00:03:03;;;;;;;19.37;10.30;;;;;;;0.14;100.00;99643.83;1607712;88;21560;-73
2022/02/06 00:05:31;;;;;;;22.58;10.45;;;;;;;0.14;100.00;99636.06;1611476;88;21084;-74
2022/02/06 00:08:00;;;;;;;21.05;8.98;;;;;;;0.17;100.00;99647.69;1622158;88;21134;-73
2022/02/06 00:10:26;;;;;;;18.60;7.58;;;;;;;0.19;100.00;99639.49;1617057;88;21548;-73
2022/02/06 00:12:52;;;;;;;13.68;6.97;;;;;;;0.22;100.00;99636.47;1614259;88;21126;-73
2022/02/06 00:15:21;;;;;;;16.70;7.62;;;;;;;0.23;100.00;99643.36;1618963;88;21059;-74
2022/02/06 00:17:49;;;;;;;17.40;7.22;;;;;;;0.25;100.00;99641.63;1618902;88;21091;-74
2022/02/06 00:20:17;;;;;;;12.33;6.30;;;;;;;0.27;100.00;99643.34;1618864;87;21658;-74
2022/02/06 00:22:51;;;;;;;16.80;6.35;;;;;;;0.28;100.00;99636.46;1619265;88;21090;-74
2022/02/06 00:27:56;;;;;;;14.25;6.10;;;;;;;0.30;100.00;99635.99;1618999;88;21113;-75
2022/02/06 00:30:27;;;;;;;16.57;6.85;;;;;;;0.31;100.00;99640.33;1618981;87;21039;-75
2022/02/06 00:32:51;;;;;;;17.87;8.38;;;;;;;0.32;100.00;99636.85;1618952;87;21124;-74
2022/02/06 00:38:07;;;;;;;29.75;11.73;;;;;;;0.33;100.00;99634.70;1593354;88;21728;-71
2022/02/06 00:41:15;;;;;;;21.82;10.30;;;;;;;0.33;100.00;99632.12;1606769;87;28857;-73
2022/02/06 00:42:57;;;;;;;23.85;10.45;;;;;;;0.35;100.00;99640.75;1594514;88;21559;-73
2022/02/06 00:45:24;;;;;;;16.73;7.28;;;;;;;0.35;100.00;99644.20;1602831;89;21083;-73
2022/02/06 00:47:51;;;;;;;16.23;7.45;;;;;;;0.35;100.00;99640.75;1602994;89;21067;-74
2022/02/06 00:50:18;;;;;;;19.42;8.40;;;;;;;0.36;100.00;99647.64;1602825;89;22010;-73
2022/02/06 00:52:54;;;;;;;19.42;7.50;;;;;;;0.34;100.00;99637.72;1602967;89;21044;-72
2022/02/06 00:55:13;;;;;;;16.62;7.50;;;;;;;0.35;100.00;99639.45;1603250;89;21092;-72
2022/02/06 00:57:39;;;;;;;19.10;6.35;;;;;;;0.37;100.00;99637.28;1603319;89;21103;-75
2022/02/06 01:00:08;;;;;;;16.40;6.25;;;;;;;0.38;100.00;99636.84;1603962;88;22366;-72
2022/02/06 01:02:36;;;;;;;12.60;5.67;;;;;;;0.40;100.00;99637.27;1625392;88;20982;-72
2022/02/06 01:05:03;;;;;;;18.82;6.83;;;;;;;0.40;100.00;99634.67;1625471;88;21062;-72
2022/02/06 01:07:31;;;;;;;14.05;6.72;;;;;;;0.41;100.00;99630.34;1611289;87;21050;-73
2022/02/06 01:09:58;;;;;;;21.75;9.73;;;;;;;0.41;100.00;99630.34;1601741;89;21117;-72
2022/02/06 01:12:27;;;;;;;25.12;12.07;;;;;;;0.42;100.00;99635.97;1601303;89;21132;-72
2022/02/06 01:15:07;;;;;;;18.70;8.70;;;;;;;0.42;100.00;99633.38;1601194;89;21193;-73
2022/02/06 01:17:32;;;;;;;28.02;11.48;;;;;;;0.44;100.00;99632.95;1598786;88;21078;-72
2022/02/06 01:20:04;;;;;;;21.55;9.40;;;;;;;0.41;100.00;99634.23;1587630;90;21087;-73
2022/02/06 01:22:31;;;;;;;19.75;9.90;;;;;;;0.41;100.00;99630.34;1587691;90;21119;-71
2022/02/06 01:25:08;;;;;;;23.18;9.35;;;;;;;0.40;100.00;99629.49;1587963;90;21164;-72
2022/02/06 01:27:40;;;;;;;19.32;7.97;;;;;;;0.40;100.00;99628.64;1586786;90;21685;-70
2022/02/06 01:30:15;;;;;;;22.55;8.75;;;;;;;0.40;100.00;99631.22;1587465;90;21558;-72
2022/02/06 01:32:54;;;;;;;20.45;8.48;;;;;;;0.41;100.00;99636.82;1587772;90;21166;-72
2022/02/06 01:35:18;;;;;;;17.73;8.80;;;;;;;0.40;100.00;99635.11;1587215;90;21277;-73
2022/02/06 01:37:51;;;;;;;18.57;7.58;;;;;;;0.39;100.00;99632.96;1587853;90;21035;-73
2022/02/06 01:42:58;;;;;;;17.30;8.78;;;;;;;0.39;100.00;99626.89;1519554;93;21644;-73
2022/02/06 02:04:35;;;;;;;;;;;;;;;0.45;100.00;99626.03;1676379;85;21116;-74
2022/02/06 02:09:54;;;;;;;17.48;8.98;;;;;;;0.46;100.00;99633.80;1563719;88;21053;-72
2022/02/06 02:14:57;;;;;;;22.62;10.95;;;;;;;0.48;100.00;99632.04;1629712;86;21081;-73
2022/02/06 02:17:25;;;;;;;18.17;7.42;;;;;;;0.50;100.00;99640.67;1630280;87;21063;-72
2022/02/06 02:20:01;;;;;;;18.25;7.17;;;;;;;0.52;100.00;99637.64;1630434;86;21132;-72
2022/02/06 02:27:40;;;;;;;22.35;9.35;;;;;;;0.52;100.00;99641.53;1629456;86;21067;-71
2022/02/06 02:30:25;;;;;;;24.87;11.85;;;;;;;0.51;100.00;99635.94;1630066;87;21135;-72
2022/02/06 02:48:27;;;;;;;21.07;9.48;;;;;;;0.53;100.00;99639.38;1629706;88;21136;-72
2022/02/06 02:50:59;;;;;;;17.10;9.55;;;;;;;0.51;100.00;99637.67;1629653;88;21075;-72
2022/02/06 03:01:19;;;;;;;19.52;8.70;;;;;;;0.45;100.00;99650.20;1598090;90;21046;-71
2022/02/06 03:03:39;;;;;;;18.23;7.70;;;;;;;0.48;100.00;99637.66;1598919;88;21042;-72
2022/02/06 03:06:07;;;;;;;18.62;7.90;;;;;;;0.47;100.00;99645.88;1598653;89;21136;-71
2022/02/06 03:08:35;;;;;;;13.50;7.30;;;;;;;0.48;100.00;99647.59;1599114;89;21097;-74
2022/02/06 03:11:07;;;;;;;15.65;7.58;;;;;;;0.39;100.00;99637.25;1598746;89;21502;-73
2022/02/06 03:13:50;;;;;;;21.12;10.80;;;;;;;0.45;100.00;99642.42;1613493;88;21077;-73
2022/02/06 03:16:19;;;;;;;18.62;8.90;;;;;;;0.47;100.00;99643.28;1623361;88;21088;-74
2022/02/06 03:18:42;;;;;;;24.77;12.18;;;;;;;0.48;100.00;99649.32;1624140;88;21082;-72
2022/02/06 03:21:02;;;;;;;25.97;11.63;;;;;;;0.48;100.00;99653.20;1627882;88;21047;-73
2022/02/06 03:23:36;;;;;;;24.37;11.48;;;;;;;0.48;100.00;99653.20;1594173;88;21132;-73
2022/02/06 03:25:58;;;;;;;21.77;10.68;;;;;;;0.48;100.00;99646.29;1631349;87;21084;-71
2022/02/06 03:28:25;;;;;;;22.37;9.70;;;;;;;0.50;100.00;99651.03;1632563;87;21039;-71
2022/02/06 03:30:52;;;;;;;21.57;9.33;;;;;;;0.50;100.00;99656.22;1632453;87;21148;-72
2022/02/06 03:33:19;;;;;;;27.32;11.25;;;;;;;0.51;100.00;99650.19;1632369;87;21084;-70
2022/02/06 03:35:46;;;;;;;16.12;7.78;;;;;;;0.48;100.00;99641.11;1630188;87;22149;-71
2022/02/06 03:38:13;;;;;;;19.62;8.65;;;;;;;0.49;100.00;99645.44;1672248;85;21088;-72
2022/02/06 03:40:45;;;;;;;18.27;9.18;;;;;;;0.49;100.00;99641.55;1673017;85;21096;-74
2022/02/06 03:43:16;;;;;;;14.80;7.50;;;;;;;0.48;100.00;99646.73;1680449;85;21514;-72
2022/02/06 03:45:44;;;;;;;14.75;7.60;;;;;;;0.49;100.00;99645.44;1646245;87;21082;-72
2022/02/06 03:48:25;;;;;;;15.70;8.48;;;;;;;0.51;100.00;99646.73;1617888;88;21330;-72
2022/02/06 03:50:55;;;;;;;17.67;8.10;;;;;;;0.49;100.00;99644.14;1636378;87;21062;-72
2022/02/06 03:53:21;;;;;;;15.13;8.35;;;;;;;0.47;100.00;99649.77;1633782;87;21106;-72
2022/02/06 03:55:48;;;;;;;19.37;9.53;;;;;;;0.47;100.00;99649.77;1634994;87;21561;-73
2022/02/06 03:58:15;;;;;;;20.12;9.93;;;;;;;0.47;100.00;99644.58;1634885;87;21040;-73
2022/02/06 04:00:41;;;;;;;21.48;10.13;;;;;;;0.48;100.00;99651.47;1634799;87;21136;-73
2022/02/06 04:03:08;;;;;;;18.40;9.35;;;;;;;0.49;100.00;99654.51;1634804;87;21065;-71
2022/02/06 04:05:34;;;;;;;15.75;8.18;;;;;;;0.49;100.00;99645.44;1634864;87;21098;-71
2022/02/06 04:08:02;;;;;;;32.95;12.13;;;;;;;0.49;100.00;99648.47;1634762;87;21089;-75
2022/02/06 04:10:35;;;;;;;22.55;12.10;;;;;;;0.50;100.00;99645.85;1634792;87;21129;-75
2022/02/06 04:13:00;;;;;;;22.58;11.53;;;;;;;0.51;100.00;99648.89;1635685;87;21176;-73
2022/02/06 04:15:35;;;;;;;20.02;9.30;;;;;;;0.51;100.00;99657.95;1635662;87;21077;-73
2022/02/06 04:18:10;;;;;;;18.95;9.15;;;;;;;0.51;100.00;99661.84;1636736;86;21282;-74
2022/02/06 04:20:24;;;;;;;16.15;7.42;;;;;;;0.52;100.00;99654.48;1636536;87;21046;-74
2022/02/06 04:22:51;;;;;;;19.98;9.78;;;;;;;0.51;100.00;99665.73;1636039;87;21113;-75
2022/02/06 04:25:17;;;;;;;17.50;8.10;;;;;;;0.53;100.00;99667.00;1635932;87;21121;-74
2022/02/06 04:27:44;;;;;;;19.98;9.05;;;;;;;0.53;100.00;99660.52;1635826;87;21097;-74
2022/02/06 04:30:11;;;;;;;14.93;8.10;;;;;;;0.54;100.00;99660.53;1635316;86;21359;-72
2022/02/06 04:32:37;;;;;;;16.65;7.83;;;;;;;0.54;100.00;99659.23;1647953;85;21126;-71
2022/02/06 04:35:09;;;;;;;16.52;8.43;;;;;;;0.53;100.00;99660.52;1627497;87;21178;-72
2022/02/06 04:37:49;;;;;;;13.18;7.42;;;;;;;0.53;100.00;99664.00;1637976;86;21208;-69
2022/02/06 04:40:20;;;;;;;19.10;8.73;;;;;;;0.50;100.00;99665.28;1643588;86;21108;-72
2022/02/06 04:43:13;;;;;;;22.25;10.35;;;;;;;0.49;100.00;99666.16;1647698;86;28275;-72
2022/02/06 04:45:46;;;;;;;25.00;13.10;;;;;;;0.49;100.00;99670.05;1648353;86;21097;-71
2022/02/06 04:48:27;;;;;;;17.70;9.08;;;;;;;0.47;100.00;99667.89;1700910;84;21039;-73
2022/02/06 05:16:59;;;;;;;15.18;7.92;;;;;;;0.47;100.00;99679.55;1733725;81;21135;-73
2022/02/06 05:31:56;;;;;;;20.32;9.20;;;;;;;0.42;100.00;99687.78;1727089;83;21049;-73
2022/02/06 05:34:12;;;;;;;;;;;;;;;0.41;100.00;99691.22;1717617;82;21632;-73
2022/02/06 05:36:39;;;;;;;25.85;11.53;;;;;;;0.42;100.00;99691.67;1717497;82;20944;-74
2022/02/06 05:39:06;;;;;;;27.77;11.10;;;;;;;0.41;100.00;99695.11;1717326;82;21573;-73
2022/02/06 05:41:32;;;;;;;22.00;9.68;;;;;;;0.22;100.00;99665.81;1716140;81;21200;-73
2022/02/06 05:43:59;;;;;;;17.00;8.93;;;;;;;0.44;100.00;99704.19;1724507;83;21629;-73
2022/02/06 05:46:25;;;;;;;17.60;8.85;;;;;;;0.44;100.00;99695.13;1725992;83;21101;-72
2022/02/06 05:48:52;;;;;;;16.15;8.55;;;;;;;0.46;100.00;99694.69;1725546;82;21040;-73
2022/02/06 05:51:18;;;;;;;17.90;8.75;;;;;;;0.49;100.00;99704.17;1725858;83;21552;-72
2022/02/06 05:53:45;;;;;;;15.18;7.50;;;;;;;0.50;100.00;99705.45;1725508;83;21558;-71
2022/02/06 05:56:16;;;;;;;15.72;7.45;;;;;;;0.52;100.00;99699.83;1722028;83;21025;-72
2022/02/06 05:58:40;;;;;;;15.78;7.28;;;;;;;0.53;100.00;99704.57;1713002;82;21061;-73
2022/02/06 06:01:11;;;;;;;15.98;8.13;;;;;;;0.52;100.00;99701.13;1699552;82;21069;-72
2022/02/06 06:03:37;;;;;;;17.07;7.62;;;;;;;0.54;100.00;99705.02;1651166;85;21092;-70
2022/02/06 06:06:04;;;;;;;17.82;7.80;;;;;;;0.54;100.00;99710.20;1684432;84;21202;-71
2022/02/06 06:08:32;;;;;;;16.57;7.60;;;;;;;0.56;100.00;99705.44;1684166;84;21027;-73
2022/02/06 06:10:59;;;;;;;18.07;8.05;;;;;;;0.57;100.00;99707.15;1689585;83;21691;-73
2022/02/06 06:13:26;;;;;;;19.30;7.80;;;;;;;0.58;100.00;99708.89;1676612;84;21092;-71
2022/02/06 06:15:55;;;;;;;16.65;7.47;;;;;;;0.57;100.00;99704.55;1712725;83;21117;-71
2022/02/06 06:18:20;;;;;;;18.62;7.70;;;;;;;0.57;100.00;99701.96;1713154;82;21118;-71
2022/02/06 06:20:47;;;;;;;21.07;9.73;;;;;;;0.56;100.00;99707.17;1714020;82;21505;-71
2022/02/06 06:23:15;;;;;;;28.10;14.15;;;;;;;0.59;100.00;99718.37;1718178;83;21036;-70
2022/02/06 06:25:44;;;;;;;19.35;8.95;;;;;;;0.64;100.00;99709.29;1717992;82;21516;-70
2022/02/06 06:28:10;;;;;;;22.45;11.15;;;;;;;0.69;100.00;99707.97;1717872;82;21068;-70
2022/02/06 06:30:36;;;;;;;20.77;9.73;;;;;;;0.71;100.00;99717.91;1713035;83;21146;-71
2022/02/06 06:33:05;;;;;;;17.02;7.97;;;;;;;0.72;100.00;99715.77;1702977;82;21042;-70
2022/02/06 06:35:32;;;;;;;22.77;9.40;;;;;;;0.76;100.00;99723.52;1699334;82;21123;-71
2022/02/06 06:38:00;;;;;;;20.40;8.95;;;;;;;0.78;100.00;99714.42;1677956;85;21376;-70
2022/02/06 06:40:27;;;;;;;15.90;7.83;;;;;;;0.80;100.00;99717.88;1678050;85;21053;-70
2022/02/06 06:42:54;;;;;;;17.40;8.83;;;;;;;0.83;100.00;99719.17;1677977;85;21181;-71
2022/02/06 06:45:22;;;;;;;15.65;7.83;;;;;;;0.86;100.00;99719.16;1678099;85;21089;-70
2022/02/06 06:47:56;;;;;;;17.87;8.40;;;;;;;0.87;100.00;99720.86;1681275;83;21150;-70
2022/02/06 06:50:32;;;;;;;19.82;7.83;;;;;;;0.91;100.00;99721.73;1694669;83;22187;-71
2022/02/06 06:52:54;;;;;;;18.92;8.80;;;;;;;0.96;100.00;99725.16;1671982;84;21593;-70
2022/02/06 06:55:23;;;;;;;22.90;10.53;;;;;;;0.99;100.00;99720.83;1666554;84;21018;-70
2022/02/06 06:58:02;;;;;;;25.05;11.80;;;;;;;1.03;100.00;99722.52;1703136;83;21089;-71
2022/02/06 07:02:50;;;;;;;33.28;14.35;;;;;;;1.08;100.00;99719.05;1716605;83;20418;-70
2022/02/06 07:05:17;;;;;;;30.57;13.85;;;;;;;1.07;100.00;99717.34;1708367;83;21100;-70
2022/02/06 07:07:44;;;;;;;28.50;13.40;;;;;;;1.10;100.00;99716.01;1717683;82;21228;-70
2022/02/06 07:10:11;;;;;;;33.18;14.00;;;;;;;1.13;100.00;99713.39;1708166;83;21049;-69
2022/02/06 07:12:39;;;;;;;31.30;12.47;;;;;;;1.15;100.00;99711.24;1718224;81;21083;-69
2022/02/06 07:15:08;;;;;;;22.85;11.75;;;;;;;1.16;100.00;99715.55;1716428;81;21701;-70
2022/02/06 07:17:35;;;;;;;23.02;10.65;;;;;;;1.24;100.00;99712.89;1719854;81;21104;-71
2022/02/06 07:20:02;;;;;;;21.70;11.30;;;;;;;1.26;100.00;99716.34;1717543;83;21795;-71
2022/02/06 07:22:34;;;;;;;24.87;12.25;;;;;;;1.25;100.00;99718.09;1681596;85;21068;-70
2022/02/06 07:24:58;;;;;;;22.82;11.75;;;;;;;1.29;100.00;99718.95;1713836;81;21087;-69
2022/02/06 07:27:29;;;;;;;22.00;11.22;;;;;;;1.32;100.00;99716.33;1718290;82;21066;-71
2022/02/06 07:29:56;;;;;;;25.75;12.45;;;;;;;1.36;100.00;99720.63;1720462;83;21036;-71
2022/02/06 07:32:22;;;;;;;26.00;12.63;;;;;;;1.37;100.00;99721.04;1718683;83;22557;-70
2022/02/06 07:34:50;;;;;;;24.02;12.35;;;;;;;1.40;100.00;99721.45;1717451;83;21119;-71
2022/02/06 07:37:17;;;;;;;23.92;12.23;;;;;;;1.41;100.00;99724.05;1714574;81;21069;-71
2022/02/06 07:39:45;;;;;;;25.75;13.90;;;;;;;1.39;100.00;99721.89;1708984;83;21027;-73
2022/02/06 07:42:12;;;;;;;31.77;14.05;;;;;;;1.36;100.00;99720.63;1721642;81;21023;-70
2022/02/06 07:44:46;;;;;;;28.07;14.07;;;;;;;1.39;100.00;99719.30;1713324;83;21171;-71
2022/02/06 07:47:18;;;;;;;21.75;12.03;;;;;;;1.45;100.00;99720.57;1708592;83;21076;-72
2022/02/06 07:49:46;;;;;;;25.32;13.38;;;;;;;1.46;100.00;99709.30;1719101;83;21053;-74
2022/02/06 07:52:14;;;;;;;27.10;12.85;;;;;;;1.46;100.00;99711.05;1719549;83;21045;-72
2022/02/06 07:54:41;;;;;;;28.30;13.15;;;;;;;1.53;100.00;99717.05;1718013;83;21123;-72
2022/02/06 07:57:07;;;;;;;28.57;13.43;;;;;;;1.61;100.00;99724.34;1702816;83;21112;-71
2022/02/06 07:59:34;;;;;;;25.95;11.97;;;;;;;1.61;100.00;99719.14;1711244;83;21106;-71
2022/02/06 08:02:02;;;;;;;27.48;13.10;;;;;;;1.60;100.00;99715.70;1716464;83;21704;-70
2022/02/06 08:04:29;;;;;;;25.52;12.80;;;;;;;1.59;100.00;99720.92;1716145;83;21617;-70
2022/02/06 08:06:57;;;;;;;25.62;12.28;;;;;;;1.62;100.00;99728.23;1709909;83;21100;-70
2022/02/06 08:09:43;;;;;;;24.45;13.13;;;;;;;1.60;100.00;99728.67;1708244;83;21145;-69
2022/02/06 08:11:57;;;;;;;26.02;12.78;;;;;;;1.57;100.00;99736.94;1711031;83;21067;-70
2022/02/06 08:17:08;;;;;;;30.55;13.90;;;;;;;1.52;100.00;99728.30;1713910;83;22155;-70
2022/02/06 08:19:36;;;;;;;28.05;13.98;;;;;;;1.54;100.00;99735.23;1712797;83;21068;-70
2022/02/06 08:22:02;;;;;;;23.20;12.23;;;;;;;1.57;100.00;99729.15;1710192;83;21103;-70
2022/02/06 08:24:29;;;;;;;29.27;14.00;;;;;;;1.57;100.00;99726.55;1711723;83;21149;-70
2022/02/06 08:26:55;;;;;;;23.42;11.95;;;;;;;1.55;100.00;99729.59;1711337;81;21059;-71
2022/02/06 08:29:22;;;;;;;25.32;13.22;;;;;;;1.54;100.00;99727.84;1716514;83;21584;-70
2022/02/06 08:31:48;;;;;;;24.65;12.85;;;;;;;1.49;100.00;99728.33;1713999;83;21037;-70
2022/02/06 08:34:15;;;;;;;25.23;12.07;;;;;;;1.52;100.00;99723.11;1703212;83;21552;-70
2022/02/06 08:36:41;;;;;;;26.00;13.45;;;;;;;1.59;100.00;99722.22;1711690;83;21043;-71
2022/02/06 08:39:08;;;;;;;27.30;12.53;;;;;;;1.67;100.00;99728.20;1704540;83;21067;-71
2022/02/06 08:41:34;;;;;;;23.98;11.93;;;;;;;1.71;100.00;99726.45;1716494;82;21097;-70
2022/02/06 08:44:05;;;;;;;22.15;11.30;;;;;;;1.79;100.00;99721.60;1713099;83;21563;-70
2022/02/06 08:46:31;;;;;;;24.52;12.30;;;;;;;1.87;100.00;99723.72;1712124;83;21124;-71
2022/02/06 08:48:58;;;;;;;24.65;11.00;;;;;;;1.95;100.00;99720.19;1709000;83;21569;-71
2022/02/06 08:51:24;;;;;;;20.85;10.58;;;;;;;1.91;100.00;99719.78;1711625;83;21093;-71
2022/02/06 08:53:53;;;;;;;20.20;11.05;;;;;;;1.87;100.00;99717.67;1697432;82;21098;-72
2022/02/06 08:56:20;;;;;;;23.98;10.93;;;;;;;1.87;100.00;99717.67;1717942;83;21645;-71
2022/02/06 08:58:48;;;;;;;21.97;11.45;;;;;;;1.87;100.00;99718.52;1682876;83;22166;-71
2022/02/06 09:01:14;;;;;;;20.57;10.45;;;;;;;1.95;100.00;99730.58;1679161;85;21608;-70
2022/02/06 09:03:42;;;;;;;24.20;10.72;;;;;;;1.98;100.00;99726.23;1682035;84;21042;-69
2022/02/06 09:06:12;;;;;;;20.27;9.98;;;;;;;2.01;100.00;99722.30;1670798;85;21456;-70
2022/02/06 09:08:39;;;;;;;23.95;10.30;;;;;;;2.01;100.00;99722.30;1672400;84;21079;-70
2022/02/06 09:11:05;;;;;;;19.00;10.13;;;;;;;1.97;100.00;99716.70;1674031;84;21764;-70
2022/02/06 09:13:32;;;;;;;21.62;10.68;;;;;;;1.93;100.00;99720.64;1670660;85;21222;-71
2022/02/06 09:15:59;;;;;;;26.37;11.45;;;;;;;1.92;100.00;99707.24;1680913;83;22089;-69
2022/02/06 09:18:27;;;;;;;27.30;11.78;;;;;;;1.93;100.00;99716.74;1672173;85;21061;-70
2022/02/06 09:20:53;;;;;;;21.25;10.30;;;;;;;1.96;100.00;99703.75;1683199;85;21544;-70
2022/02/06 09:23:19;;;;;;;20.35;9.78;;;;;;;1.96;100.00;99703.75;1663483;85;21509;-70
2022/02/06 09:25:46;;;;;;;18.80;9.88;;;;;;;1.99;99.49;99694.63;1680500;85;21061;-69
2022/02/06 09:28:12;;;;;;;25.20;9.75;;;;;;;2.01;99.17;99696.77;1683562;85;21065;-69
2022/02/06 09:30:39;;;;;;;20.95;9.18;;;;;;;2.02;98.20;99690.69;1683314;85;21104;-70
2022/02/06 09:35:32;;;;;;;19.40;9.50;;;;;;;2.10;98.25;99668.11;1676032;83;21502;-69
2022/02/06 09:37:58;;;;;;;19.05;9.18;;;;;;;2.19;98.91;99683.61;1678495;83;21129;-70
2022/02/06 09:40:26;;;;;;;18.17;8.93;;;;;;;2.25;97.00;99683.52;1680024;85;21554;-70
2022/02/06 09:42:53;;;;;;;19.50;9.43;;;;;;;2.20;95.14;99695.70;1682889;85;21076;-69
2022/02/06 09:45:28;;;;;;;20.57;9.78;;;;;;;2.22;96.70;99675.77;1675451;85;21104;-69
2022/02/06 09:47:54;;;;;;;19.42;9.38;;;;;;;2.30;95.24;99673.97;1683144;85;21977;-69
2022/02/06 09:50:21;;;;;;;16.90;8.73;;;;;;;2.39;93.82;99661.73;1683799;85;21061;-69
2022/02/06 09:52:47;;;;;;;19.62;8.60;;;;;;;2.37;92.21;99668.68;1684264;85;21077;-69
2022/02/06 09:55:19;;;;;;;25.10;10.30;;;;;;;2.37;92.21;99668.68;1642318;86;21113;-69
2022/02/06 10:00:20;;;;;;;23.87;11.05;;;;;;;2.60;96.22;99666.70;1684196;85;21543;-69
2022/02/06 10:02:47;;;;;;;28.92;11.03;;;;;;;2.60;96.22;99666.70;1701923;83;21010;-69
2022/02/06 10:05:17;;;;;;;19.30;10.05;;;;;;;2.66;93.35;99676.16;1703831;83;21037;-69
2022/02/06 10:07:51;;;;;;;17.32;8.53;;;;;;;2.68;95.39;99668.75;1700318;82;21073;-69
2022/02/06 10:10:18;;;;;;;21.85;9.10;;;;;;;2.76;90.87;99665.19;1704531;83;21053;-69
2022/02/06 10:12:45;;;;;;;19.17;8.60;;;;;;;2.77;91.12;99660.43;1704809;83;21123;-69
2022/02/06 10:15:15;;;;;;;16.10;7.30;;;;;;;2.79;89.87;99656.07;1707098;82;21124;-69
2022/02/06 10:17:45;;;;;;;17.60;8.18;;;;;;;2.73;88.20;99647.45;1677081;84;21106;-70
2022/02/06 10:20:15;;;;;;;13.93;7.42;;;;;;;2.83;88.87;99634.32;1671266;84;21600;-69
2022/02/06 10:23:01;;;;;;;18.27;7.50;;;;;;;2.83;88.87;99634.32;1671359;85;21143;-69
2022/02/06 10:25:25;;;;;;;24.70;11.18;;;;;;;2.85;87.27;99629.96;1712584;82;21988;-71
2022/02/06 10:30:42;;;;;;;21.75;10.18;;;;;;;3.02;90.48;99626.70;1653998;82;21657;-71
2022/02/06 10:33:18;;;;;;;21.75;11.30;;;;;;;3.16;90.17;99638.20;1702221;83;21588;-70
2022/02/06 10:35:53;;;;;;;22.15;8.48;;;;;;;3.30;87.62;99631.05;1705698;82;22210;-71
2022/02/06 10:38:27;;;;;;;22.17;8.25;;;;;;;3.40;85.95;99631.75;1696590;83;21878;-70
2022/02/06 10:41:16;;;;;;;19.57;7.87;;;;;;;3.68;82.69;99631.30;1712937;82;21545;-71
2022/02/06 10:44:09;;;;;;;14.35;7.45;;;;;;;4.20;80.70;99632.53;1700370;83;21117;-70
2022/02/06 10:46:54;;;;;;;15.43;7.25;;;;;;;4.73;79.43;99633.66;1684044;83;21100;-69
2022/02/06 10:49:20;;;;;;;22.60;9.73;;;;;;;4.99;78.95;99626.59;1707922;83;21209;-69
2022/02/06 10:51:59;;;;;;;22.22;9.58;;;;;;;4.84;79.74;99618.63;1694528;83;21101;-70
2022/02/06 10:54:31;;;;;;;16.05;7.55;;;;;;;4.68;78.99;99625.07;1684261;85;21092;-69
2022/02/06 10:57:11;;;;;;;17.07;7.60;;;;;;;4.47;78.26;99620.31;1704245;83;21049;-70
2022/02/06 10:59:46;;;;;;;14.98;6.40;;;;;;;4.22;78.82;99623.84;1725349;83;21042;-69
2022/02/06 11:02:27;;;;;;;14.78;7.15;;;;;;;4.16;78.10;99614.38;1724921;83;21559;-69
2022/02/06 11:05:17;;;;;;;19.62;8.45;;;;;;;4.14;78.71;99614.84;1725594;83;21138;-68
2022/02/06 11:07:38;;;;;;;19.32;8.80;;;;;;;4.08;80.38;99614.98;1724140;82;21073;-69
2022/02/06 11:10:12;;;;;;;23.45;9.85;;;;;;;4.15;80.96;99610.06;1724135;82;21081;-69
2022/02/06 11:12:42;;;;;;;18.30;8.90;;;;;;;4.12;82.43;99610.14;1725702;81;21063;-73
2022/02/06 11:15:38;;;;;;;18.12;8.03;;;;;;;4.12;80.82;99598.41;1726879;83;21073;-72
2022/02/06 11:18:20;;;;;;;14.55;6.42;;;;;;;4.13;79.25;99602.72;1724463;83;21980;-73
2022/02/06 11:21:07;;;;;;;17.20;7.05;;;;;;;4.56;77.01;99592.74;1686821;84;21073;-72
2022/02/06 11:23:43;;;;;;;15.55;7.15;;;;;;;4.78;76.77;99595.27;1689016;84;21041;-73
2022/02/06 11:26:17;;;;;;;17.55;8.78;;;;;;;4.82;75.96;99589.11;1663908;84;21081;-72
2022/02/06 11:28:45;;;;;;;17.57;8.13;;;;;;;4.73;78.11;99590.61;1679123;84;21058;-72
2022/02/06 11:31:15;;;;;;;23.27;9.58;;;;;;;4.61;77.79;99592.19;1657371;86;21847;-72
2022/02/06 11:33:41;;;;;;;23.75;9.13;;;;;;;4.60;79.90;99598.28;1651215;85;21057;-73
2022/02/06 11:36:23;;;;;;;18.65;8.28;;;;;;;4.53;79.95;99590.17;1645744;84;21043;-71
2022/02/06 11:45:19;;;;;;;22.25;9.55;;;;;;;4.08;73.97;99599.35;1719263;82;21146;-71
2022/02/06 11:47:54;;;;;;;22.13;9.28;;;;;;;4.05;76.69;99595.48;1718814;82;21093;-73
2022/02/06 11:50:21;;;;;;;16.07;7.40;;;;;;;4.05;76.99;99596.78;1727307;82;21117;-72
2022/02/06 11:52:59;;;;;;;15.72;6.80;;;;;;;3.98;75.61;99596.06;1718278;82;21129;-72
2022/02/06 11:55:43;;;;;;;14.10;5.97;;;;;;;3.87;74.75;99601.91;1729168;82;21549;-73
2022/02/06 11:58:32;;;;;;;15.83;6.47;;;;;;;3.69;74.26;99600.03;1682427;83;21418;-72
2022/02/06 12:01:14;;;;;;;16.12;7.35;;;;;;;3.55;75.40;99595.07;1734614;82;21112;-71
2022/02/06 12:04:20;;;;;;;19.12;9.00;;;;;;;3.44;77.42;99585.72;1732777;82;20943;-73
2022/02/06 12:06:52;;;;;;;16.93;6.47;;;;;;;3.46;78.14;99590.47;1712286;82;21132;-71
2022/02/06 12:09:31;;;;;;;23.95;7.47;;;;;;;3.43;78.59;99587.47;1734774;82;21033;-72
2022/02/06 12:12:11;;;;;;;14.75;6.72;;;;;;;3.42;79.35;99583.14;1721100;82;21843;-72
2022/02/06 12:14:46;;;;;;;14.73;7.30;;;;;;;3.44;80.51;99571.41;1695907;82;21633;-72
2022/02/06 12:17:24;;;;;;;17.30;8.53;;;;;;;3.57;80.68;99565.96;1701618;83;21092;-73
2022/02/06 12:20:10;;;;;;;22.17;10.40;;;;;;;3.81;79.67;99565.55;1727232;82;21041;-71
2022/02/06 12:22:42;;;;;;;18.93;8.63;;;;;;;4.09;79.85;99568.48;1719867;82;21042;-72
2022/02/06 12:25:34;;;;;;;23.32;10.40;;;;;;;4.60;75.64;99563.07;1724422;82;21128;-73
2022/02/06 12:28:23;;;;;;;17.35;7.45;;;;;;;5.21;75.30;99562.13;1716218;82;21538;-73
2022/02/06 12:31:14;;;;;;;16.45;6.72;;;;;;;6.05;71.06;99565.64;1716169;82;21050;-72
2022/02/06 12:33:50;;;;;;;17.48;8.50;;;;;;;6.66;64.82;99566.96;1711816;82;21030;-71
2022/02/06 12:39:26;;;;;;;17.42;8.25;;;;;;;6.50;62.49;99562.17;1710259;82;21551;-73
2022/02/06 12:41:55;;;;;;;21.17;7.03;;;;;;;5.81;64.96;99565.84;1700834;82;21046;-72
2022/02/06 12:44:23;;;;;;;15.78;7.15;;;;;;;5.35;66.35;99557.42;1696534;83;21556;-72
2022/02/06 12:46:50;;;;;;;17.20;6.95;;;;;;;5.06;66.78;99559.42;1690122;83;21034;-71
2022/02/06 12:49:21;;;;;;;20.85;7.05;;;;;;;4.82;68.35;99557.80;1718242;83;21576;-71
2022/02/06 12:51:45;;;;;;;15.18;6.67;;;;;;;4.76;69.20;99557.95;1724958;81;21609;-71
2022/02/06 12:54:14;;;;;;;13.25;6.95;;;;;;;4.61;69.74;99560.89;1737622;81;21655;-71
2022/02/06 12:56:43;;;;;;;22.95;8.10;;;;;;;4.41;71.19;99561.31;1731549;81;21058;-71
2022/02/06 12:59:11;;;;;;;17.65;7.67;;;;;;;4.04;72.83;99559.91;1726039;82;21588;-73
2022/02/06 13:01:43;;;;;;;17.07;9.15;;;;;;;3.71;74.72;99562.27;1716646;81;21601;-69
2022/02/06 13:04:17;;;;;;;22.58;11.10;;;;;;;3.47;76.50;99553.97;1734682;82;21139;-70
2022/02/06 13:06:46;;;;;;;23.12;8.95;;;;;;;3.36;78.98;99549.42;1741622;81;21046;-70
2022/02/06 13:09:26;;;;;;;23.45;10.80;;;;;;;3.32;79.34;99547.75;1747307;80;21454;-70
2022/02/06 13:12:08;;;;;;;24.98;12.25;;;;;;;3.20;81.12;99544.03;1741091;80;21562;-70
2022/02/06 13:14:50;;;;;;;16.95;8.08;;;;;;;3.06;82.85;99539.93;1725774;81;21542;-70
2022/02/06 13:17:14;;;;;;;20.62;8.35;;;;;;;2.95;81.40;99539.23;1714254;83;21138;-70
2022/02/06 13:19:48;;;;;;;22.87;9.80;;;;;;;2.86;82.15;99541.98;1727063;81;21015;-71
2022/02/06 13:27:48;;;;;;;24.35;10.95;;;;;;;2.83;82.83;99545.90;1748035;81;21049;-70
2022/02/06 13:35:42;;;;;;;29.67;10.88;;;;;;;2.67;84.08;99540.95;1738739;81;21052;-70
2022/02/06 13:38:08;;;;;;;21.37;9.75;;;;;;;2.61;83.89;99543.63;1745648;81;21074;-70
2022/02/06 13:40:46;;;;;;;32.50;13.80;;;;;;;2.53;83.68;99540.26;1738413;81;21066;-69
2022/02/06 13:43:17;;;;;;;22.82;11.28;;;;;;;2.47;84.26;99536.46;1749159;81;21436;-70
2022/02/06 13:45:42;;;;;;;24.25;10.80;;;;;;;2.40;84.09;99538.28;1751066;81;21058;-72
2022/02/06 13:48:12;;;;;;;27.77;12.37;;;;;;;2.33;84.20;99529.30;1750120;81;21035;-69
2022/02/06 13:50:49;;;;;;;35.75;14.78;;;;;;;2.25;85.09;99527.63;1751309;81;21049;-70